sensor_id;sensor_type;location;lat;lon;timestamp;P1;durP1;ratioP1;P2;durP2;ratioP2
37791;SDS011;29527;55.766;37.570;2023-02-04T00:01:38;11.02;;;6.72;;
37791;SDS011;29527;55.766;37.570;2023-02-04T00:04:03;9.65;;;6.72;;
37791;SDS011;29527;55.766;37.570;2023-02-04T00:06:29;10.60;;;6.85;;
37791;SDS011;29527;55.766;37.570;2023-02-04T00:08:54;12.93;;;6.85;;
37791;SDS011;29527;55.766;37.570;2023-02-04T00:11:20;11.32;;;7.90;;
37791;SDS011;29527;55.766;37.570;2023-02-04T00:13:45;10.77;;;6.82;;
37791;SDS011;29527;55.766;37.570;2023-02-04T00:16:10;10.32;;;6.35;;
37791;SDS011;29527;55.766;37.570;2023-02-04T00:18:36;9.82;;;6.95;;
37791;SDS011;29527;55.766;37.570;2023-02-04T00:21:01;8.02;;;5.75;;
37791;SDS011;29527;55.766;37.570;2023-02-04T00:23:27;8.23;;;5.85;;
37791;SDS011;29527;55.766;37.570;2023-02-04T00:25:52;8.88;;;6.47;;
37791;SDS011;29527;55.766;37.570;2023-02-04T00:28:18;8.50;;;6.13;;
37791;SDS011;29527;55.766;37.570;2023-02-04T00:30:44;7.55;;;5.75;;
37791;SDS011;29527;55.766;37.570;2023-02-04T00:33:09;7.75;;;6.25;;
37791;SDS011;29527;55.766;37.570;2023-02-04T00:35:34;9.52;;;6.45;;
37791;SDS011;29527;55.766;37.570;2023-02-04T00:38:01;9.25;;;5.93;;
37791;SDS011;29527;55.766;37.570;2023-02-04T00:40:28;10.73;;;7.80;;
37791;SDS011;29527;55.766;37.570;2023-02-04T00:42:53;16.20;;;10.27;;
37791;SDS011;29527;55.766;37.570;2023-02-04T00:45:19;18.40;;;12.38;;
37791;SDS011;29527;55.766;37.570;2023-02-04T00:47:44;16.77;;;11.65;;
37791;SDS011;29527;55.766;37.570;2023-02-04T00:50:10;15.48;;;10.43;;
37791;SDS011;29527;55.766;37.570;2023-02-04T00:52:35;15.32;;;11.23;;
37791;SDS011;29527;55.766;37.570;2023-02-04T00:55:01;16.92;;;11.80;;
37791;SDS011;29527;55.766;37.570;2023-02-04T00:57:26;15.77;;;12.02;;
37791;SDS011;29527;55.766;37.570;2023-02-04T00:59:52;13.65;;;10.65;;
37791;SDS011;29527;55.766;37.570;2023-02-04T01:02:17;18.38;;;11.70;;
37791;SDS011;29527;55.766;37.570;2023-02-04T01:04:43;16.75;;;10.75;;
37791;SDS011;29527;55.766;37.570;2023-02-04T01:07:08;22.35;;;13.05;;
37791;SDS011;29527;55.766;37.570;2023-02-04T01:09:33;20.92;;;14.90;;
37791;SDS011;29527;55.766;37.570;2023-02-04T01:11:59;23.05;;;16.02;;
37791;SDS011;29527;55.766;37.570;2023-02-04T01:14:24;21.05;;;14.50;;
37791;SDS011;29527;55.766;37.570;2023-02-04T01:16:50;22.55;;;15.70;;
37791;SDS011;29527;55.766;37.570;2023-02-04T01:19:15;22.33;;;15.13;;
37791;SDS011;29527;55.766;37.570;2023-02-04T01:21:41;21.83;;;15.38;;
37791;SDS011;29527;55.766;37.570;2023-02-04T01:24:06;25.33;;;16.13;;
37791;SDS011;29527;55.766;37.570;2023-02-04T01:26:32;22.00;;;15.32;;
37791;SDS011;29527;55.766;37.570;2023-02-04T01:28:57;20.35;;;15.25;;
37791;SDS011;29527;55.766;37.570;2023-02-04T01:31:22;18.65;;;13.77;;
37791;SDS011;29527;55.766;37.570;2023-02-04T01:33:48;17.63;;;12.80;;
37791;SDS011;29527;55.766;37.570;2023-02-04T01:36:13;14.88;;;11.05;;
37791;SDS011;29527;55.766;37.570;2023-02-04T01:38:45;17.90;;;10.98;;
37791;SDS011;29527;55.766;37.570;2023-02-04T01:41:11;15.02;;;10.23;;
37791;SDS011;29527;55.766;37.570;2023-02-04T01:43:37;15.82;;;10.75;;
37791;SDS011;29527;55.766;37.570;2023-02-04T01:46:03;13.45;;;10.13;;
37791;SDS011;29527;55.766;37.570;2023-02-04T01:48:28;15.23;;;10.75;;
37791;SDS011;29527;55.766;37.570;2023-02-04T01:51:00;15.38;;;11.02;;
37791;SDS011;29527;55.766;37.570;2023-02-04T01:53:29;16.77;;;10.75;;
37791;SDS011;29527;55.766;37.570;2023-02-04T01:55:55;14.15;;;10.52;;
37791;SDS011;29527;55.766;37.570;2023-02-04T01:58:21;13.32;;;10.10;;
37791;SDS011;29527;55.766;37.570;2023-02-04T02:00:46;12.40;;;9.35;;
37791;SDS011;29527;55.766;37.570;2023-02-04T02:03:12;12.52;;;9.50;;
37791;SDS011;29527;55.766;37.570;2023-02-04T02:05:39;12.57;;;8.48;;
37791;SDS011;29527;55.766;37.570;2023-02-04T02:08:07;11.77;;;8.15;;
37791;SDS011;29527;55.766;37.570;2023-02-04T02:10:35;9.27;;;6.65;;
37791;SDS011;29527;55.766;37.570;2023-02-04T02:13:02;11.05;;;6.38;;
37791;SDS011;29527;55.766;37.570;2023-02-04T02:15:29;8.35;;;6.38;;
37791;SDS011;29527;55.766;37.570;2023-02-04T02:17:55;7.43;;;5.55;;
37791;SDS011;29527;55.766;37.570;2023-02-04T02:20:21;8.45;;;6.07;;
37791;SDS011;29527;55.766;37.570;2023-02-04T02:26:08;9.88;;;6.50;;
37791;SDS011;29527;55.766;37.570;2023-02-04T02:28:34;9.00;;;6.57;;
37791;SDS011;29527;55.766;37.570;2023-02-04T02:31:00;10.48;;;6.65;;
37791;SDS011;29527;55.766;37.570;2023-02-04T02:33:25;9.65;;;6.75;;
37791;SDS011;29527;55.766;37.570;2023-02-04T02:35:51;8.77;;;6.88;;
37791;SDS011;29527;55.766;37.570;2023-02-04T02:38:17;9.30;;;6.63;;
37791;SDS011;29527;55.766;37.570;2023-02-04T02:40:44;10.07;;;6.72;;
37791;SDS011;29527;55.766;37.570;2023-02-04T02:43:14;8.95;;;6.80;;
37791;SDS011;29527;55.766;37.570;2023-02-04T02:45:42;8.15;;;6.53;;
37791;SDS011;29527;55.766;37.570;2023-02-04T02:48:08;10.10;;;7.22;;
37791;SDS011;29527;55.766;37.570;2023-02-04T02:50:35;10.20;;;6.90;;
37791;SDS011;29527;55.766;37.570;2023-02-04T02:53:00;9.77;;;6.82;;
37791;SDS011;29527;55.766;37.570;2023-02-04T02:55:28;10.38;;;7.60;;
37791;SDS011;29527;55.766;37.570;2023-02-04T02:57:54;10.88;;;7.00;;
37791;SDS011;29527;55.766;37.570;2023-02-04T03:00:25;10.18;;;7.22;;
37791;SDS011;29527;55.766;37.570;2023-02-04T03:05:20;8.68;;;6.75;;
37791;SDS011;29527;55.766;37.570;2023-02-04T03:07:46;11.27;;;7.55;;
37791;SDS011;29527;55.766;37.570;2023-02-04T03:10:11;9.52;;;6.80;;
37791;SDS011;29527;55.766;37.570;2023-02-04T03:12:38;12.80;;;6.88;;
37791;SDS011;29527;55.766;37.570;2023-02-04T03:15:04;10.38;;;7.15;;
37791;SDS011;29527;55.766;37.570;2023-02-04T03:17:30;10.48;;;7.10;;
37791;SDS011;29527;55.766;37.570;2023-02-04T03:19:56;11.05;;;7.70;;
37791;SDS011;29527;55.766;37.570;2023-02-04T03:22:22;9.13;;;7.18;;
37791;SDS011;29527;55.766;37.570;2023-02-04T03:24:47;9.63;;;7.25;;
37791;SDS011;29527;55.766;37.570;2023-02-04T03:27:13;10.63;;;7.85;;
37791;SDS011;29527;55.766;37.570;2023-02-04T03:29:42;10.73;;;7.95;;
37791;SDS011;29527;55.766;37.570;2023-02-04T03:32:09;9.43;;;7.10;;
37791;SDS011;29527;55.766;37.570;2023-02-04T03:34:35;10.52;;;7.40;;
37791;SDS011;29527;55.766;37.570;2023-02-04T03:37:00;12.02;;;7.55;;
37791;SDS011;29527;55.766;37.570;2023-02-04T03:39:26;9.07;;;7.00;;
37791;SDS011;29527;55.766;37.570;2023-02-04T03:41:51;13.57;;;8.23;;
37791;SDS011;29527;55.766;37.570;2023-02-04T03:44:16;10.27;;;7.15;;
37791;SDS011;29527;55.766;37.570;2023-02-04T03:46:42;10.45;;;7.93;;
37791;SDS011;29527;55.766;37.570;2023-02-04T03:49:08;11.10;;;7.45;;
37791;SDS011;29527;55.766;37.570;2023-02-04T03:51:33;10.80;;;7.28;;
37791;SDS011;29527;55.766;37.570;2023-02-04T03:53:59;9.45;;;7.28;;
37791;SDS011;29527;55.766;37.570;2023-02-04T03:56:24;11.27;;;7.55;;
37791;SDS011;29527;55.766;37.570;2023-02-04T03:58:50;9.82;;;7.18;;
37791;SDS011;29527;55.766;37.570;2023-02-04T04:01:15;9.77;;;7.30;;
37791;SDS011;29527;55.766;37.570;2023-02-04T04:03:40;12.05;;;7.43;;
37791;SDS011;29527;55.766;37.570;2023-02-04T04:06:06;8.77;;;7.00;;
37791;SDS011;29527;55.766;37.570;2023-02-04T04:08:34;10.20;;;7.55;;
37791;SDS011;29527;55.766;37.570;2023-02-04T04:11:00;9.77;;;7.10;;
37791;SDS011;29527;55.766;37.570;2023-02-04T04:13:25;8.25;;;6.07;;
37791;SDS011;29527;55.766;37.570;2023-02-04T04:15:50;8.60;;;6.13;;
37791;SDS011;29527;55.766;37.570;2023-02-04T04:18:16;9.27;;;6.55;;
37791;SDS011;29527;55.766;37.570;2023-02-04T04:20:41;9.60;;;7.32;;
37791;SDS011;29527;55.766;37.570;2023-02-04T04:23:07;10.48;;;7.28;;
37791;SDS011;29527;55.766;37.570;2023-02-04T04:25:32;9.75;;;7.32;;
37791;SDS011;29527;55.766;37.570;2023-02-04T04:27:57;12.50;;;7.57;;
37791;SDS011;29527;55.766;37.570;2023-02-04T04:30:23;10.82;;;7.95;;
37791;SDS011;29527;55.766;37.570;2023-02-04T04:32:48;10.23;;;7.50;;
37791;SDS011;29527;55.766;37.570;2023-02-04T04:35:14;12.30;;;7.93;;
37791;SDS011;29527;55.766;37.570;2023-02-04T04:37:39;9.32;;;7.32;;
37791;SDS011;29527;55.766;37.570;2023-02-04T04:40:05;9.75;;;7.20;;
37791;SDS011;29527;55.766;37.570;2023-02-04T04:42:30;11.18;;;7.35;;
37791;SDS011;29527;55.766;37.570;2023-02-04T04:44:56;11.27;;;8.23;;
37791;SDS011;29527;55.766;37.570;2023-02-04T04:47:22;11.95;;;8.00;;
37791;SDS011;29527;55.766;37.570;2023-02-04T04:49:47;12.68;;;8.05;;
37791;SDS011;29527;55.766;37.570;2023-02-04T04:52:12;10.40;;;8.00;;
37791;SDS011;29527;55.766;37.570;2023-02-04T04:54:38;12.70;;;8.60;;
37791;SDS011;29527;55.766;37.570;2023-02-04T04:57:03;13.05;;;8.27;;
37791;SDS011;29527;55.766;37.570;2023-02-04T04:59:29;10.77;;;7.80;;
37791;SDS011;29527;55.766;37.570;2023-02-04T05:01:54;11.65;;;8.48;;
37791;SDS011;29527;55.766;37.570;2023-02-04T05:04:19;13.55;;;8.10;;
37791;SDS011;29527;55.766;37.570;2023-02-04T05:06:45;13.25;;;8.38;;
37791;SDS011;29527;55.766;37.570;2023-02-04T05:09:10;12.38;;;8.60;;
37791;SDS011;29527;55.766;37.570;2023-02-04T05:11:36;14.45;;;8.50;;
37791;SDS011;29527;55.766;37.570;2023-02-04T05:14:01;12.63;;;8.48;;
37791;SDS011;29527;55.766;37.570;2023-02-04T05:16:27;12.25;;;7.90;;
37791;SDS011;29527;55.766;37.570;2023-02-04T05:18:52;11.00;;;8.05;;
37791;SDS011;29527;55.766;37.570;2023-02-04T05:21:17;12.43;;;8.68;;
37791;SDS011;29527;55.766;37.570;2023-02-04T05:23:43;12.80;;;8.98;;
37791;SDS011;29527;55.766;37.570;2023-02-04T05:26:08;12.75;;;8.55;;
37791;SDS011;29527;55.766;37.570;2023-02-04T05:28:34;13.50;;;8.52;;
37791;SDS011;29527;55.766;37.570;2023-02-04T05:30:59;12.63;;;7.75;;
37791;SDS011;29527;55.766;37.570;2023-02-04T05:33:25;12.20;;;8.02;;
37791;SDS011;29527;55.766;37.570;2023-02-04T05:35:51;14.77;;;8.27;;
37791;SDS011;29527;55.766;37.570;2023-02-04T05:38:16;11.23;;;8.25;;
37791;SDS011;29527;55.766;37.570;2023-02-04T05:40:42;12.63;;;8.05;;
37791;SDS011;29527;55.766;37.570;2023-02-04T05:43:07;13.13;;;8.63;;
37791;SDS011;29527;55.766;37.570;2023-02-04T05:45:33;13.63;;;8.38;;
37791;SDS011;29527;55.766;37.570;2023-02-04T05:47:58;11.07;;;8.10;;
37791;SDS011;29527;55.766;37.570;2023-02-04T05:50:24;13.73;;;8.98;;
37791;SDS011;29527;55.766;37.570;2023-02-04T05:52:49;13.23;;;8.10;;
37791;SDS011;29527;55.766;37.570;2023-02-04T05:55:15;12.07;;;8.82;;
37791;SDS011;29527;55.766;37.570;2023-02-04T05:57:40;15.40;;;10.23;;
37791;SDS011;29527;55.766;37.570;2023-02-04T06:00:06;20.23;;;12.65;;
37791;SDS011;29527;55.766;37.570;2023-02-04T06:02:32;27.55;;;15.48;;
37791;SDS011;29527;55.766;37.570;2023-02-04T06:04:58;22.75;;;14.48;;
37791;SDS011;29527;55.766;37.570;2023-02-04T06:07:23;19.13;;;13.50;;
37791;SDS011;29527;55.766;37.570;2023-02-04T06:09:49;18.75;;;12.77;;
37791;SDS011;29527;55.766;37.570;2023-02-04T06:12:14;19.60;;;11.43;;
37791;SDS011;29527;55.766;37.570;2023-02-04T06:14:40;15.23;;;9.85;;
37791;SDS011;29527;55.766;37.570;2023-02-04T06:17:05;15.18;;;9.65;;
37791;SDS011;29527;55.766;37.570;2023-02-04T06:19:31;16.13;;;9.00;;
37791;SDS011;29527;55.766;37.570;2023-02-04T06:21:56;16.38;;;9.07;;
37791;SDS011;29527;55.766;37.570;2023-02-04T06:24:21;16.58;;;9.57;;
37791;SDS011;29527;55.766;37.570;2023-02-04T06:26:47;13.85;;;9.10;;
37791;SDS011;29527;55.766;37.570;2023-02-04T06:29:12;13.85;;;8.65;;
37791;SDS011;29527;55.766;37.570;2023-02-04T06:31:38;13.55;;;8.63;;
37791;SDS011;29527;55.766;37.570;2023-02-04T06:34:04;13.80;;;8.05;;
37791;SDS011;29527;55.766;37.570;2023-02-04T06:36:30;14.50;;;8.48;;
37791;SDS011;29527;55.766;37.570;2023-02-04T06:38:56;14.13;;;7.65;;
37791;SDS011;29527;55.766;37.570;2023-02-04T06:41:22;12.27;;;7.95;;
37791;SDS011;29527;55.766;37.570;2023-02-04T06:43:47;11.32;;;7.90;;
37791;SDS011;29527;55.766;37.570;2023-02-04T06:46:13;12.15;;;8.05;;
37791;SDS011;29527;55.766;37.570;2023-02-04T06:48:38;14.95;;;8.35;;
37791;SDS011;29527;55.766;37.570;2023-02-04T06:51:04;12.13;;;8.57;;
37791;SDS011;29527;55.766;37.570;2023-02-04T06:53:29;14.88;;;9.18;;
37791;SDS011;29527;55.766;37.570;2023-02-04T06:55:55;15.63;;;9.07;;
37791;SDS011;29527;55.766;37.570;2023-02-04T06:58:20;14.55;;;9.15;;
37791;SDS011;29527;55.766;37.570;2023-02-04T07:00:46;14.68;;;8.93;;
37791;SDS011;29527;55.766;37.570;2023-02-04T07:03:11;14.30;;;8.70;;
37791;SDS011;29527;55.766;37.570;2023-02-04T07:05:37;14.45;;;9.20;;
37791;SDS011;29527;55.766;37.570;2023-02-04T07:08:02;12.55;;;9.10;;
37791;SDS011;29527;55.766;37.570;2023-02-04T07:10:27;14.40;;;8.98;;
37791;SDS011;29527;55.766;37.570;2023-02-04T07:12:53;15.32;;;9.45;;
37791;SDS011;29527;55.766;37.570;2023-02-04T07:15:18;14.77;;;9.80;;
37791;SDS011;29527;55.766;37.570;2023-02-04T07:17:44;15.63;;;9.43;;
37791;SDS011;29527;55.766;37.570;2023-02-04T07:20:09;13.40;;;9.82;;
37791;SDS011;29527;55.766;37.570;2023-02-04T07:22:35;15.48;;;10.05;;
37791;SDS011;29527;55.766;37.570;2023-02-04T07:25:01;16.38;;;9.95;;
37791;SDS011;29527;55.766;37.570;2023-02-04T07:27:27;18.20;;;11.20;;
37791;SDS011;29527;55.766;37.570;2023-02-04T07:29:52;16.55;;;11.13;;
37791;SDS011;29527;55.766;37.570;2023-02-04T07:32:18;18.25;;;10.80;;
37791;SDS011;29527;55.766;37.570;2023-02-04T07:34:43;16.52;;;10.13;;
37791;SDS011;29527;55.766;37.570;2023-02-04T07:37:08;20.52;;;11.05;;
37791;SDS011;29527;55.766;37.570;2023-02-04T07:39:34;17.15;;;11.00;;
37791;SDS011;29527;55.766;37.570;2023-02-04T07:41:59;20.05;;;11.93;;
37791;SDS011;29527;55.766;37.570;2023-02-04T07:44:25;21.63;;;11.48;;
37791;SDS011;29527;55.766;37.570;2023-02-04T07:46:50;18.30;;;11.65;;
37791;SDS011;29527;55.766;37.570;2023-02-04T07:49:16;22.20;;;12.30;;
37791;SDS011;29527;55.766;37.570;2023-02-04T07:51:41;27.38;;;12.23;;
37791;SDS011;29527;55.766;37.570;2023-02-04T07:54:07;22.60;;;12.15;;
37791;SDS011;29527;55.766;37.570;2023-02-04T07:56:33;20.25;;;11.90;;
37791;SDS011;29527;55.766;37.570;2023-02-04T07:58:58;20.77;;;12.30;;
37791;SDS011;29527;55.766;37.570;2023-02-04T08:01:23;22.20;;;12.35;;
37791;SDS011;29527;55.766;37.570;2023-02-04T08:03:49;19.63;;;12.35;;
37791;SDS011;29527;55.766;37.570;2023-02-04T08:06:14;17.38;;;11.50;;
37791;SDS011;29527;55.766;37.570;2023-02-04T08:08:40;22.48;;;11.57;;
37791;SDS011;29527;55.766;37.570;2023-02-04T08:11:05;18.05;;;10.75;;
37791;SDS011;29527;55.766;37.570;2023-02-04T08:13:31;19.90;;;11.98;;
37791;SDS011;29527;55.766;37.570;2023-02-04T08:15:56;15.93;;;10.80;;
37791;SDS011;29527;55.766;37.570;2023-02-04T08:18:22;17.38;;;11.50;;
37791;SDS011;29527;55.766;37.570;2023-02-04T08:20:49;19.13;;;10.57;;
37791;SDS011;29527;55.766;37.570;2023-02-04T08:23:14;14.82;;;10.23;;
37791;SDS011;29527;55.766;37.570;2023-02-04T08:25:40;14.43;;;9.65;;
37791;SDS011;29527;55.766;37.570;2023-02-04T08:28:05;17.05;;;9.35;;
37791;SDS011;29527;55.766;37.570;2023-02-04T08:30:31;13.82;;;9.10;;
37791;SDS011;29527;55.766;37.570;2023-02-04T08:32:56;14.65;;;10.48;;
37791;SDS011;29527;55.766;37.570;2023-02-04T08:35:22;16.08;;;10.85;;
37791;SDS011;29527;55.766;37.570;2023-02-04T08:37:47;15.05;;;10.25;;
37791;SDS011;29527;55.766;37.570;2023-02-04T08:40:12;17.35;;;8.95;;
37791;SDS011;29527;55.766;37.570;2023-02-04T08:42:38;17.50;;;11.57;;
37791;SDS011;29527;55.766;37.570;2023-02-04T08:45:03;20.88;;;11.80;;
37791;SDS011;29527;55.766;37.570;2023-02-04T08:47:29;17.20;;;10.73;;
37791;SDS011;29527;55.766;37.570;2023-02-04T08:49:55;18.95;;;10.88;;
37791;SDS011;29527;55.766;37.570;2023-02-04T08:52:20;21.65;;;11.57;;
37791;SDS011;29527;55.766;37.570;2023-02-04T08:54:45;23.38;;;11.85;;
37791;SDS011;29527;55.766;37.570;2023-02-04T08:57:11;18.90;;;12.25;;
37791;SDS011;29527;55.766;37.570;2023-02-04T08:59:36;24.70;;;13.07;;
37791;SDS011;29527;55.766;37.570;2023-02-04T09:02:02;20.67;;;13.57;;
37791;SDS011;29527;55.766;37.570;2023-02-04T09:04:27;27.38;;;15.50;;
37791;SDS011;29527;55.766;37.570;2023-02-04T09:06:53;34.08;;;17.63;;
37791;SDS011;29527;55.766;37.570;2023-02-04T09:09:19;40.58;;;19.73;;
37791;SDS011;29527;55.766;37.570;2023-02-04T09:11:45;25.40;;;17.45;;
37791;SDS011;29527;55.766;37.570;2023-02-04T09:14:11;28.30;;;16.90;;
37791;SDS011;29527;55.766;37.570;2023-02-04T09:16:37;30.58;;;18.23;;
37791;SDS011;29527;55.766;37.570;2023-02-04T09:19:02;31.02;;;18.38;;
37791;SDS011;29527;55.766;37.570;2023-02-04T09:21:28;37.17;;;20.58;;
37791;SDS011;29527;55.766;37.570;2023-02-04T09:23:54;43.22;;;21.25;;
37791;SDS011;29527;55.766;37.570;2023-02-04T09:26:19;26.95;;;16.15;;
37791;SDS011;29527;55.766;37.570;2023-02-04T09:28:45;26.08;;;14.65;;
37791;SDS011;29527;55.766;37.570;2023-02-04T09:31:12;30.65;;;14.98;;
37791;SDS011;29527;55.766;37.570;2023-02-04T09:33:38;33.08;;;15.98;;
37791;SDS011;29527;55.766;37.570;2023-02-04T09:36:03;42.90;;;24.25;;
37791;SDS011;29527;55.766;37.570;2023-02-04T09:38:29;45.80;;;24.00;;
37791;SDS011;29527;55.766;37.570;2023-02-04T09:40:56;40.60;;;21.83;;
37791;SDS011;29527;55.766;37.570;2023-02-04T09:43:26;39.15;;;22.00;;
37791;SDS011;29527;55.766;37.570;2023-02-04T09:45:54;34.67;;;18.77;;
37791;SDS011;29527;55.766;37.570;2023-02-04T09:48:21;40.78;;;19.92;;
37791;SDS011;29527;55.766;37.570;2023-02-04T09:50:48;33.65;;;19.13;;
37791;SDS011;29527;55.766;37.570;2023-02-04T09:53:16;35.22;;;19.13;;
37791;SDS011;29527;55.766;37.570;2023-02-04T09:55:45;32.25;;;18.30;;
37791;SDS011;29527;55.766;37.570;2023-02-04T09:58:19;44.33;;;19.80;;
37791;SDS011;29527;55.766;37.570;2023-02-04T10:00:47;33.20;;;19.13;;
37791;SDS011;29527;55.766;37.570;2023-02-04T10:03:20;33.35;;;20.40;;
37791;SDS011;29527;55.766;37.570;2023-02-04T10:05:47;31.20;;;18.10;;
37791;SDS011;29527;55.766;37.570;2023-02-04T10:08:22;31.02;;;17.80;;
37791;SDS011;29527;55.766;37.570;2023-02-04T10:10:54;35.80;;;20.70;;
37791;SDS011;29527;55.766;37.570;2023-02-04T10:13:21;37.50;;;21.58;;
37791;SDS011;29527;55.766;37.570;2023-02-04T10:15:54;39.25;;;20.33;;
37791;SDS011;29527;55.766;37.570;2023-02-04T10:18:28;31.90;;;19.02;;
37791;SDS011;29527;55.766;37.570;2023-02-04T10:23:48;31.15;;;20.27;;
37791;SDS011;29527;55.766;37.570;2023-02-04T10:26:15;36.65;;;20.20;;
37791;SDS011;29527;55.766;37.570;2023-02-04T10:28:42;39.10;;;21.73;;
37791;SDS011;29527;55.766;37.570;2023-02-04T10:31:26;37.30;;;22.27;;
37791;SDS011;29527;55.766;37.570;2023-02-04T10:34:01;35.90;;;22.20;;
37791;SDS011;29527;55.766;37.570;2023-02-04T10:36:36;36.33;;;21.33;;
37791;SDS011;29527;55.766;37.570;2023-02-04T10:39:09;27.65;;;16.70;;
37791;SDS011;29527;55.766;37.570;2023-02-04T10:41:35;23.00;;;14.77;;
37791;SDS011;29527;55.766;37.570;2023-02-04T10:44:04;26.92;;;16.30;;
37791;SDS011;29527;55.766;37.570;2023-02-04T10:46:30;10.95;;;6.53;;
37791;SDS011;29527;55.766;37.570;2023-02-04T10:48:56;8.13;;;5.95;;
37791;SDS011;29527;55.766;37.570;2023-02-04T10:51:21;8.65;;;5.95;;
37791;SDS011;29527;55.766;37.570;2023-02-04T10:53:47;10.20;;;6.22;;
37791;SDS011;29527;55.766;37.570;2023-02-04T10:56:31;11.65;;;6.97;;
37791;SDS011;29527;55.766;37.570;2023-02-04T10:58:57;10.57;;;6.25;;
37791;SDS011;29527;55.766;37.570;2023-02-04T11:01:24;13.48;;;7.45;;
37791;SDS011;29527;55.766;37.570;2023-02-04T11:03:52;11.43;;;7.78;;
37791;SDS011;29527;55.766;37.570;2023-02-04T11:06:21;10.70;;;7.03;;
37791;SDS011;29527;55.766;37.570;2023-02-04T11:08:48;9.27;;;6.47;;
37791;SDS011;29527;55.766;37.570;2023-02-04T11:11:18;11.98;;;6.90;;
37791;SDS011;29527;55.766;37.570;2023-02-04T11:32:03;14.30;;;8.10;;
37791;SDS011;29527;55.766;37.570;2023-02-04T11:34:49;15.45;;;8.68;;
37791;SDS011;29527;55.766;37.570;2023-02-04T11:39:51;16.27;;;9.48;;
37791;SDS011;29527;55.766;37.570;2023-02-04T11:42:21;14.70;;;9.02;;
37791;SDS011;29527;55.766;37.570;2023-02-04T11:44:53;15.90;;;9.10;;
37791;SDS011;29527;55.766;37.570;2023-02-04T11:47:22;17.15;;;9.70;;
37791;SDS011;29527;55.766;37.570;2023-02-04T11:49:57;18.38;;;9.35;;
37791;SDS011;29527;55.766;37.570;2023-02-04T11:52:25;16.65;;;9.80;;
37791;SDS011;29527;55.766;37.570;2023-02-04T11:54:55;15.20;;;9.43;;
37791;SDS011;29527;55.766;37.570;2023-02-04T11:57:22;15.93;;;10.13;;
37791;SDS011;29527;55.766;37.570;2023-02-04T11:59:48;15.45;;;9.80;;
37791;SDS011;29527;55.766;37.570;2023-02-04T12:02:20;20.20;;;11.88;;
37791;SDS011;29527;55.766;37.570;2023-02-04T12:04:51;22.20;;;12.45;;
37791;SDS011;29527;55.766;37.570;2023-02-04T12:07:28;21.45;;;11.80;;
37791;SDS011;29527;55.766;37.570;2023-02-04T12:12:28;27.55;;;15.88;;
37791;SDS011;29527;55.766;37.570;2023-02-04T12:15:00;32.08;;;16.77;;
37791;SDS011;29527;55.766;37.570;2023-02-04T12:17:29;30.70;;;17.13;;
37791;SDS011;29527;55.766;37.570;2023-02-04T12:19:55;28.23;;;16.95;;
37791;SDS011;29527;55.766;37.570;2023-02-04T12:22:20;26.50;;;13.40;;
37791;SDS011;29527;55.766;37.570;2023-02-04T12:24:45;21.25;;;12.32;;
37791;SDS011;29527;55.766;37.570;2023-02-04T12:27:11;23.83;;;13.38;;
37791;SDS011;29527;55.766;37.570;2023-02-04T12:29:36;23.33;;;13.80;;
37791;SDS011;29527;55.766;37.570;2023-02-04T12:32:02;29.60;;;15.95;;
37791;SDS011;29527;55.766;37.570;2023-02-04T12:34:27;29.98;;;16.20;;
37791;SDS011;29527;55.766;37.570;2023-02-04T12:36:53;29.10;;;17.00;;
37791;SDS011;29527;55.766;37.570;2023-02-04T12:39:18;31.15;;;17.50;;
37791;SDS011;29527;55.766;37.570;2023-02-04T12:41:44;30.70;;;16.50;;
37791;SDS011;29527;55.766;37.570;2023-02-04T12:44:10;33.15;;;17.42;;
37791;SDS011;29527;55.766;37.570;2023-02-04T12:46:35;30.00;;;16.98;;
37791;SDS011;29527;55.766;37.570;2023-02-04T12:49:00;31.45;;;16.75;;
37791;SDS011;29527;55.766;37.570;2023-02-04T12:51:26;31.67;;;16.63;;
37791;SDS011;29527;55.766;37.570;2023-02-04T12:53:51;30.98;;;16.95;;
37791;SDS011;29527;55.766;37.570;2023-02-04T12:56:17;31.67;;;16.98;;
37791;SDS011;29527;55.766;37.570;2023-02-04T12:58:44;27.73;;;15.02;;
37791;SDS011;29527;55.766;37.570;2023-02-04T13:01:10;31.38;;;15.38;;
37791;SDS011;29527;55.766;37.570;2023-02-04T13:03:36;34.75;;;17.83;;
37791;SDS011;29527;55.766;37.570;2023-02-04T13:06:01;32.28;;;16.90;;
37791;SDS011;29527;55.766;37.570;2023-02-04T13:08:26;31.15;;;15.20;;
37791;SDS011;29527;55.766;37.570;2023-02-04T13:10:52;32.97;;;18.25;;
37791;SDS011;29527;55.766;37.570;2023-02-04T13:13:18;34.45;;;17.13;;
37791;SDS011;29527;55.766;37.570;2023-02-04T13:15:44;32.47;;;17.20;;
37791;SDS011;29527;55.766;37.570;2023-02-04T13:18:10;33.03;;;17.15;;
37791;SDS011;29527;55.766;37.570;2023-02-04T13:20:35;28.48;;;16.40;;
37791;SDS011;29527;55.766;37.570;2023-02-04T13:23:01;28.20;;;16.55;;
37791;SDS011;29527;55.766;37.570;2023-02-04T13:25:27;32.75;;;16.70;;
37791;SDS011;29527;55.766;37.570;2023-02-04T13:27:52;26.98;;;13.75;;
37791;SDS011;29527;55.766;37.570;2023-02-04T13:30:18;29.90;;;15.45;;
37791;SDS011;29527;55.766;37.570;2023-02-04T13:32:43;30.00;;;15.27;;
37791;SDS011;29527;55.766;37.570;2023-02-04T13:35:09;28.70;;;15.68;;
37791;SDS011;29527;55.766;37.570;2023-02-04T13:37:35;32.63;;;15.77;;
37791;SDS011;29527;55.766;37.570;2023-02-04T13:40:02;32.83;;;18.15;;
37791;SDS011;29527;55.766;37.570;2023-02-04T13:42:29;36.45;;;16.90;;
37791;SDS011;29527;55.766;37.570;2023-02-04T13:44:55;30.45;;;16.30;;
37791;SDS011;29527;55.766;37.570;2023-02-04T13:47:20;31.15;;;15.38;;
37791;SDS011;29527;55.766;37.570;2023-02-04T13:49:46;28.33;;;15.88;;
37791;SDS011;29527;55.766;37.570;2023-02-04T13:52:11;26.88;;;14.65;;
37791;SDS011;29527;55.766;37.570;2023-02-04T13:54:37;26.75;;;14.43;;
37791;SDS011;29527;55.766;37.570;2023-02-04T13:57:02;27.48;;;15.48;;
37791;SDS011;29527;55.766;37.570;2023-02-04T13:59:29;31.85;;;16.00;;
37791;SDS011;29527;55.766;37.570;2023-02-04T14:01:54;31.23;;;14.70;;
37791;SDS011;29527;55.766;37.570;2023-02-04T14:04:20;29.00;;;14.68;;
37791;SDS011;29527;55.766;37.570;2023-02-04T14:06:45;32.35;;;16.15;;
37791;SDS011;29527;55.766;37.570;2023-02-04T14:09:11;29.38;;;14.48;;
37791;SDS011;29527;55.766;37.570;2023-02-04T14:11:37;28.15;;;14.35;;
37791;SDS011;29527;55.766;37.570;2023-02-04T14:14:03;26.92;;;13.20;;
37791;SDS011;29527;55.766;37.570;2023-02-04T14:16:28;25.20;;;14.10;;
37791;SDS011;29527;55.766;37.570;2023-02-04T14:18:54;29.50;;;15.32;;
37791;SDS011;29527;55.766;37.570;2023-02-04T14:21:19;27.73;;;13.93;;
37791;SDS011;29527;55.766;37.570;2023-02-04T14:23:45;29.13;;;14.00;;
37791;SDS011;29527;55.766;37.570;2023-02-04T14:26:10;26.00;;;13.23;;
37791;SDS011;29527;55.766;37.570;2023-02-04T14:28:36;23.40;;;12.85;;
37791;SDS011;29527;55.766;37.570;2023-02-04T14:31:01;26.98;;;13.90;;
37791;SDS011;29527;55.766;37.570;2023-02-04T14:33:27;22.50;;;11.57;;
37791;SDS011;29527;55.766;37.570;2023-02-04T14:35:52;25.77;;;13.95;;
37791;SDS011;29527;55.766;37.570;2023-02-04T14:38:17;23.75;;;13.00;;
37791;SDS011;29527;55.766;37.570;2023-02-04T14:40:43;24.02;;;12.52;;
37791;SDS011;29527;55.766;37.570;2023-02-04T14:43:10;26.70;;;13.25;;